createdAt,value
2023-04-19T00:00:08.965Z,10.30
2023-04-19T00:05:12.963Z,10.30
2023-04-19T00:10:14.480Z,10.33
2023-04-19T00:15:15.544Z,10.31
2023-04-19T00:20:16.697Z,10.30
2023-04-19T00:25:17.717Z,10.30
2023-04-19T00:30:18.806Z,10.26
2023-04-19T00:35:19.870Z,10.22
2023-04-19T00:40:21.127Z,10.19
2023-04-19T00:45:22.127Z,9.87
2023-04-19T00:50:23.500Z,10.15
2023-04-19T00:55:24.610Z,10.13
2023-04-19T01:00:25.780Z,10.09
2023-04-19T01:05:26.766Z,10.06
2023-04-19T01:10:27.817Z,10.03
2023-04-19T01:15:29.567Z,9.98
2023-04-19T01:20:30.644Z,9.95
2023-04-19T01:25:31.637Z,9.92
2023-04-19T01:30:34.935Z,9.87
2023-04-19T01:35:36.209Z,9.83
2023-04-19T01:40:37.285Z,9.68
2023-04-19T01:45:38.885Z,9.82
2023-04-19T01:50:39.890Z,9.78
2023-04-19T01:55:40.911Z,9.76
2023-04-19T02:00:42.025Z,9.75
2023-04-19T02:05:43.035Z,9.78
2023-04-19T02:10:48.259Z,9.85
2023-04-19T02:15:49.785Z,9.88
2023-04-19T02:20:51.208Z,9.84
2023-04-19T02:25:52.826Z,9.81
2023-04-19T02:30:53.839Z,9.74
2023-04-19T02:35:54.813Z,9.63
2023-04-19T02:40:55.799Z,9.49
2023-04-19T02:45:56.938Z,9.35
2023-04-19T02:50:58.343Z,9.23
2023-04-19T02:55:59.579Z,9.16
2023-04-19T03:01:00.852Z,9.12
2023-04-19T03:06:02.676Z,9.13
2023-04-19T03:11:06.185Z,9.13
2023-04-19T03:16:08.302Z,9.15
2023-04-19T03:21:10.649Z,9.14
2023-04-19T03:26:27.001Z,9.10
2023-04-19T03:31:30.578Z,9.03
2023-04-19T03:36:32.786Z,8.96
2023-04-19T03:41:34.050Z,8.94
2023-04-19T03:46:45.542Z,8.90
2023-04-19T03:51:48.154Z,8.88
2023-04-19T03:56:49.401Z,8.86
2023-04-19T04:01:50.720Z,8.84
2023-04-19T04:06:52.561Z,8.81
2023-04-19T04:11:53.720Z,8.74
2023-04-19T04:16:55.255Z,8.66
2023-04-19T04:21:56.567Z,8.59
2023-04-19T04:27:00.171Z,8.54
2023-04-19T04:32:10.389Z,8.49
2023-04-19T04:37:13.846Z,8.43
2023-04-19T04:42:15.368Z,8.35
2023-04-19T04:47:16.911Z,8.25
2023-04-19T04:52:23.530Z,8.18
2023-04-19T04:57:40.516Z,8.13
2023-04-19T05:02:43.545Z,8.12
2023-04-19T05:07:45.206Z,8.12
2023-04-19T05:12:46.577Z,8.15
2023-04-19T05:17:48.183Z,8.17
2023-04-19T05:22:49.702Z,8.18
2023-04-19T05:27:51.262Z,8.16
2023-04-19T05:32:52.692Z,8.21
2023-04-19T05:37:53.970Z,8.29
2023-04-19T05:42:55.000Z,8.31
2023-04-19T05:47:56.326Z,8.31
2023-04-19T05:53:23.608Z,8.29
2023-04-19T05:58:27.394Z,8.30
2023-04-19T06:03:31.223Z,8.26
2023-04-19T06:08:33.800Z,8.18
2023-04-19T06:13:35.372Z,8.10
2023-04-19T06:18:36.646Z,8.04
2023-04-19T06:23:37.805Z,7.34
2023-04-19T06:28:38.818Z,7.97
2023-04-19T06:33:40.033Z,8.01
2023-04-19T06:38:41.156Z,8.04
2023-04-19T06:43:42.213Z,8.05
2023-04-19T06:48:43.195Z,8.12
2023-04-19T06:53:44.167Z,8.24
2023-04-19T06:58:45.230Z,8.46
2023-04-19T07:03:46.468Z,8.69
2023-04-19T07:08:50.345Z,8.87
2023-04-19T07:13:51.846Z,8.96
2023-04-19T07:18:53.353Z,9.08
2023-04-19T07:23:54.309Z,9.15
2023-04-19T07:28:56.394Z,9.08
2023-04-19T07:33:57.396Z,8.88
2023-04-19T07:38:58.425Z,8.63
2023-04-19T07:43:59.542Z,8.40
2023-04-19T07:49:00.542Z,8.24
2023-04-19T07:54:01.514Z,8.28
2023-04-19T07:59:08.417Z,8.42
2023-04-19T08:04:10.542Z,8.55
2023-04-19T08:09:11.855Z,8.52
2023-04-19T08:14:30.624Z,8.30
2023-04-19T08:19:34.035Z,8.11
2023-04-19T08:24:35.080Z,8.06
2023-04-19T08:29:38.123Z,8.10
2023-04-19T08:34:39.680Z,8.21
2023-04-19T08:39:41.071Z,8.43
2023-04-19T08:45:02.256Z,8.30
2023-04-19T08:50:17.476Z,7.98
2023-04-19T08:55:27.087Z,7.71
2023-04-19T09:00:28.318Z,7.49
2023-04-19T09:05:30.563Z,7.35
2023-04-19T09:10:31.841Z,7.25
2023-04-19T09:15:38.682Z,7.20
2023-04-19T09:20:42.058Z,7.12
2023-04-19T09:26:19.287Z,7.08
2023-04-19T09:31:43.463Z,7.06
2023-04-19T09:36:52.446Z,7.06
2023-04-19T09:41:58.685Z,7.10
2023-04-19T09:46:59.992Z,7.24
2023-04-19T09:52:03.057Z,7.40
2023-04-19T09:57:04.844Z,7.42
2023-04-19T10:02:07.040Z,7.72
2023-04-19T10:07:29.090Z,7.75
2023-04-19T10:12:52.281Z,7.65
2023-04-19T10:17:53.091Z,7.44
2023-04-19T10:22:54.675Z,7.31
2023-04-19T10:27:56.886Z,6.97
2023-04-19T10:33:02.450Z,6.75
2023-04-19T10:38:15.684Z,6.64
2023-04-19T10:43:18.706Z,6.55
2023-04-19T10:48:35.011Z,6.60
2023-04-19T10:53:57.277Z,6.55
2023-04-19T10:59:01.948Z,6.49
2023-04-19T11:04:03.745Z,6.50
2023-04-19T11:09:06.492Z,6.34
2023-04-19T11:14:08.868Z,6.35
2023-04-19T11:19:09.934Z,6.41
2023-04-19T11:24:12.323Z,6.38
2023-04-19T11:29:14.029Z,6.36
2023-04-19T11:34:15.477Z,6.22
2023-04-19T11:39:17.168Z,6.23
2023-04-19T11:44:19.688Z,6.25
2023-04-19T11:49:28.776Z,6.31
2023-04-19T11:54:29.872Z,6.27
2023-04-19T11:59:32.808Z,6.13
2023-04-19T12:04:34.821Z,6.05
2023-04-19T12:09:36.429Z,6.10
2023-04-19T12:14:38.358Z,6.14
2023-04-19T12:19:45.496Z,6.12
2023-04-19T12:24:46.568Z,6.16
2023-04-19T12:29:47.516Z,6.07
2023-04-19T12:34:48.486Z,5.90
2023-04-19T12:39:49.462Z,5.75
2023-04-19T12:44:50.442Z,5.70
2023-04-19T12:49:51.390Z,5.52
2023-04-19T12:54:52.396Z,5.44
2023-04-19T12:59:53.449Z,5.50
2023-04-19T13:04:54.961Z,5.52
2023-04-19T13:09:56.807Z,5.59
2023-04-19T13:14:58.293Z,5.59
2023-04-19T13:19:59.309Z,5.52
2023-04-19T13:25:00.711Z,5.58
2023-04-19T13:30:02.009Z,5.79
2023-04-19T13:35:05.103Z,5.95
2023-04-19T13:40:17.863Z,5.91
2023-04-19T13:45:20.303Z,5.82
2023-04-19T13:50:21.311Z,5.78
2023-04-19T13:55:22.319Z,5.73
2023-04-19T14:00:23.455Z,5.61
2023-04-19T14:05:24.583Z,5.62
2023-04-19T14:10:25.636Z,5.68
2023-04-19T14:15:26.670Z,5.70
2023-04-19T14:20:27.750Z,5.67
2023-04-19T14:25:28.748Z,5.56
2023-04-19T14:30:31.135Z,5.48
2023-04-19T14:35:32.447Z,5.51
2023-04-19T14:40:33.502Z,5.53
2023-04-19T14:45:34.577Z,5.52
2023-04-19T14:50:35.643Z,5.50
2023-04-19T14:55:37.389Z,5.54
2023-04-19T15:00:38.388Z,5.56
2023-04-19T15:05:39.591Z,5.60
2023-04-19T15:10:40.770Z,5.66
2023-04-19T15:15:41.732Z,5.63
2023-04-19T15:20:42.674Z,5.64
2023-04-19T15:25:44.205Z,5.63
2023-04-19T15:30:56.080Z,5.62
2023-04-19T15:35:58.983Z,5.66
2023-04-19T15:41:03.089Z,5.76
2023-04-19T15:46:04.179Z,5.78
2023-04-19T15:51:06.496Z,5.77
2023-04-19T15:56:08.068Z,5.69
2023-04-19T16:01:12.943Z,5.70
2023-04-19T16:06:14.255Z,5.69
2023-04-19T16:11:17.180Z,5.73
2023-04-19T16:16:20.264Z,5.77
2023-04-19T16:21:22.413Z,5.80
2023-04-19T16:26:25.079Z,5.82
2023-04-19T16:31:26.542Z,5.80
2023-04-19T16:36:27.742Z,5.78
2023-04-19T16:41:29.291Z,5.75
2023-04-19T16:46:30.704Z,5.78
2023-04-19T16:51:32.122Z,5.75
2023-04-19T16:56:33.177Z,5.66
2023-04-19T17:01:34.148Z,5.63
2023-04-19T17:06:35.210Z,5.62
2023-04-19T17:11:36.185Z,5.66
2023-04-19T17:16:37.207Z,5.78
2023-04-19T17:21:38.222Z,5.87
2023-04-19T17:26:39.429Z,5.92
2023-04-19T17:31:40.486Z,5.94
2023-04-19T17:36:41.773Z,5.93
2023-04-19T17:41:44.010Z,5.92
2023-04-19T17:46:45.234Z,5.90
2023-04-19T17:51:46.980Z,5.97
2023-04-19T17:56:49.675Z,6.00
2023-04-19T18:01:50.679Z,6.03
2023-04-19T18:06:51.778Z,6.09
2023-04-19T18:11:52.959Z,6.17
2023-04-19T18:16:54.116Z,6.23
2023-04-19T18:21:55.378Z,6.24
2023-04-19T18:26:57.570Z,6.25
2023-04-19T18:31:58.579Z,6.21
2023-04-19T18:37:02.271Z,6.22
2023-04-19T18:42:03.271Z,6.27
2023-04-19T18:47:05.951Z,6.28
2023-04-19T18:52:06.920Z,6.24
2023-04-19T18:57:22.460Z,6.18
2023-04-19T19:02:25.635Z,6.20
2023-04-19T19:12:32.076Z,6.27
2023-04-19T19:17:33.122Z,6.28
2023-04-19T19:22:34.402Z,6.32
2023-04-19T19:27:36.911Z,6.28
2023-04-19T19:32:39.520Z,6.20
2023-04-19T19:37:40.648Z,6.12
2023-04-19T19:42:41.746Z,6.09
2023-04-19T19:47:45.326Z,6.08
2023-04-19T19:52:47.096Z,6.08
2023-04-19T19:58:23.790Z,6.08
2023-04-19T20:03:10.208Z,6.05
2023-04-19T20:08:13.179Z,6.03
2023-04-19T20:13:14.444Z,6.04
2023-04-19T20:18:17.122Z,6.05
2023-04-19T20:23:19.262Z,5.97
2023-04-19T20:28:20.387Z,5.99
2023-04-19T20:33:21.853Z,6.06
2023-04-19T20:38:23.720Z,6.10
2023-04-19T20:43:24.795Z,6.03
2023-04-19T20:48:25.775Z,6.02
2023-04-19T20:53:26.802Z,6.09
2023-04-19T20:58:27.825Z,6.13
2023-04-19T21:03:29.051Z,6.14
2023-04-19T21:08:30.910Z,6.19
2023-04-19T21:13:35.654Z,6.22
2023-04-19T21:18:36.952Z,6.27
2023-04-19T21:23:38.376Z,6.29
2023-04-19T21:28:39.667Z,6.26
2023-04-19T21:33:43.390Z,6.24
2023-04-19T21:38:44.435Z,6.26
2023-04-19T21:43:46.261Z,6.30
2023-04-19T21:48:47.287Z,6.32
2023-04-19T21:53:50.106Z,6.41
2023-04-19T21:58:51.062Z,6.47
2023-04-19T22:03:55.994Z,6.47
2023-04-19T22:09:02.373Z,6.47
2023-04-19T22:14:03.877Z,6.51
2023-04-19T22:19:04.883Z,6.54
2023-04-19T22:24:06.728Z,6.58
2023-04-19T22:29:07.803Z,6.52
2023-04-19T22:34:08.801Z,6.48
2023-04-19T22:39:09.863Z,6.49
2023-04-19T22:44:11.165Z,6.51
2023-04-19T22:49:12.638Z,6.52
2023-04-19T22:54:16.819Z,6.60
2023-04-19T22:59:18.216Z,6.68
2023-04-19T23:04:19.766Z,6.71
2023-04-19T23:09:23.904Z,6.76
2023-04-19T23:14:30.692Z,6.88
2023-04-19T23:19:31.685Z,6.88
2023-04-19T23:24:35.423Z,6.90
2023-04-19T23:29:36.451Z,6.92
2023-04-19T23:34:37.472Z,6.93
2023-04-19T23:39:39.150Z,6.98
2023-04-19T23:44:43.818Z,7.03
2023-04-19T23:49:51.734Z,7.03
2023-04-19T23:54:52.721Z,6.97
2023-04-19T23:59:53.716Z,7.00
